Terminal Aerodrome Forecast
Issued by NWS

Home | Current Version | Previous Version | Graphics & Text | Print | Product List | Glossary On
Versions: 1 2 3 4 5 6 7 8 9 10 11 12 13 14 15 16 17 18 19 20
000
FTUS43 KGRB 202334
TAFAUW
TAF
KAUW 202334Z 2100/2124 29008KT P6SM FEW020 BKN120
     FM210100 VRB03KT P6SM SKC
      TEMPO 2108/2112 3SM BR SCT005
     FM211500 16008KT P6SM SKC
     FM211800 17009KT P6SM FEW040 SCT150
      TEMPO 2120/2124 3SM -TSRA BKN040CB=

USA.gov is the U.S. government's official web portal to all federal, state and local government web resources and services.